sensor_id;sensor_type;location;lat;lon;timestamp;pressure;altitude;pressure_sealevel;temperature
73894;BMP280;62699;50.534;12.784;2023-04-09T00:02:22;97115.34;;;2.60
73894;BMP280;62699;50.534;12.784;2023-04-09T00:07:22;97112.69;;;2.60
73894;BMP280;62699;50.534;12.784;2023-04-09T00:12:23;97118.97;;;2.66
73894;BMP280;62699;50.534;12.784;2023-04-09T00:17:24;97114.31;;;2.71
73894;BMP280;62699;50.534;12.784;2023-04-09T00:22:24;97121.78;;;2.76
73894;BMP280;62699;50.534;12.784;2023-04-09T00:27:24;97127.84;;;2.76
73894;BMP280;62699;50.534;12.784;2023-04-09T00:32:25;97123.69;;;2.75
73894;BMP280;62699;50.534;12.784;2023-04-09T00:37:26;97116.91;;;2.74
73894;BMP280;62699;50.534;12.784;2023-04-09T00:42:26;97122.91;;;2.62
73894;BMP280;62699;50.534;12.784;2023-04-09T00:47:31;97119.50;;;2.61
73894;BMP280;62699;50.534;12.784;2023-04-09T00:52:32;97120.81;;;2.53
73894;BMP280;62699;50.534;12.784;2023-04-09T00:57:33;97124.47;;;2.43
73894;BMP280;62699;50.534;12.784;2023-04-09T01:02:33;97122.13;;;2.29
73894;BMP280;62699;50.534;12.784;2023-04-09T01:13:15;97123.25;;;2.12
73894;BMP280;62699;50.534;12.784;2023-04-09T01:18:30;97133.44;;;1.77
73894;BMP280;62699;50.534;12.784;2023-04-09T01:29:10;97136.03;;;1.38
73894;BMP280;62699;50.534;12.784;2023-04-09T01:34:13;97145.31;;;1.30
73894;BMP280;62699;50.534;12.784;2023-04-09T01:39:13;97147.00;;;1.20
73894;BMP280;62699;50.534;12.784;2023-04-09T01:44:14;97141.84;;;1.09
73894;BMP280;62699;50.534;12.784;2023-04-09T01:49:16;97143.53;;;1.00
73894;BMP280;62699;50.534;12.784;2023-04-09T01:54:18;97145.94;;;0.91
73894;BMP280;62699;50.534;12.784;2023-04-09T01:59:19;97143.09;;;0.78
73894;BMP280;62699;50.534;12.784;2023-04-09T02:04:26;97144.75;;;0.68
73894;BMP280;62699;50.534;12.784;2023-04-09T02:09:36;97134.31;;;0.58
73894;BMP280;62699;50.534;12.784;2023-04-09T02:14:39;97132.91;;;0.50
73894;BMP280;62699;50.534;12.784;2023-04-09T02:19:41;97128.56;;;0.36
73894;BMP280;62699;50.534;12.784;2023-04-09T02:24:42;97137.78;;;0.28
73894;BMP280;62699;50.534;12.784;2023-04-09T02:29:42;97126.47;;;0.24
73894;BMP280;62699;50.534;12.784;2023-04-09T02:34:42;97131.13;;;0.16
73894;BMP280;62699;50.534;12.784;2023-04-09T02:39:43;97121.31;;;0.13
73894;BMP280;62699;50.534;12.784;2023-04-09T02:44:44;97120.66;;;0.06
73894;BMP280;62699;50.534;12.784;2023-04-09T02:49:45;97126.72;;;0.03
73894;BMP280;62699;50.534;12.784;2023-04-09T02:54:45;97126.81;;;-0.05
73894;BMP280;62699;50.534;12.784;2023-04-09T02:59:46;97112.13;;;-0.09
73894;BMP280;62699;50.534;12.784;2023-04-09T03:04:47;97119.38;;;-0.13
73894;BMP280;62699;50.534;12.784;2023-04-09T03:09:47;97121.69;;;-0.19
73894;BMP280;62699;50.534;12.784;2023-04-09T03:14:47;97118.38;;;-0.26
73894;BMP280;62699;50.534;12.784;2023-04-09T03:19:47;97121.81;;;-0.29
73894;BMP280;62699;50.534;12.784;2023-04-09T03:24:47;97112.38;;;-0.30
73894;BMP280;62699;50.534;12.784;2023-04-09T03:29:48;97112.78;;;-0.36
73894;BMP280;62699;50.534;12.784;2023-04-09T03:34:48;97118.09;;;-0.36
73894;BMP280;62699;50.534;12.784;2023-04-09T03:39:48;97119.59;;;-0.34
73894;BMP280;62699;50.534;12.784;2023-04-09T03:44:49;97115.44;;;-0.36
73894;BMP280;62699;50.534;12.784;2023-04-09T03:49:52;97123.75;;;-0.37
73894;BMP280;62699;50.534;12.784;2023-04-09T03:54:52;97132.47;;;-0.40
73894;BMP280;62699;50.534;12.784;2023-04-09T03:59:52;97127.25;;;-0.44
73894;BMP280;62699;50.534;12.784;2023-04-09T04:04:52;97132.53;;;-0.44
73894;BMP280;62699;50.534;12.784;2023-04-09T04:09:53;97137.47;;;-0.46
73894;BMP280;62699;50.534;12.784;2023-04-09T04:14:53;97124.63;;;-0.47
73894;BMP280;62699;50.534;12.784;2023-04-09T04:19:53;97143.53;;;-0.49
73894;BMP280;62699;50.534;12.784;2023-04-09T04:24:53;97145.78;;;-0.47
73894;BMP280;62699;50.534;12.784;2023-04-09T04:29:53;97154.84;;;-0.45
73894;BMP280;62699;50.534;12.784;2023-04-09T04:34:54;97164.19;;;-0.37
73894;BMP280;62699;50.534;12.784;2023-04-09T04:39:54;97156.63;;;-0.34
73894;BMP280;62699;50.534;12.784;2023-04-09T04:44:55;97153.22;;;-0.31
73894;BMP280;62699;50.534;12.784;2023-04-09T04:49:55;97159.50;;;-0.18
73894;BMP280;62699;50.534;12.784;2023-04-09T04:54:55;97162.78;;;-0.07
73894;BMP280;62699;50.534;12.784;2023-04-09T04:59:56;97164.53;;;0.03
73894;BMP280;62699;50.534;12.784;2023-04-09T05:04:56;97168.16;;;0.20
73894;BMP280;62699;50.534;12.784;2023-04-09T05:09:56;97164.53;;;0.33
73894;BMP280;62699;50.534;12.784;2023-04-09T05:14:57;97167.78;;;0.45
73894;BMP280;62699;50.534;12.784;2023-04-09T05:19:57;97156.28;;;0.55
73894;BMP280;62699;50.534;12.784;2023-04-09T05:24:57;97163.38;;;0.61
73894;BMP280;62699;50.534;12.784;2023-04-09T05:29:58;97167.38;;;0.73
73894;BMP280;62699;50.534;12.784;2023-04-09T05:34:58;97164.41;;;0.71
73894;BMP280;62699;50.534;12.784;2023-04-09T05:39:58;97172.09;;;0.89
73894;BMP280;62699;50.534;12.784;2023-04-09T05:44:59;97175.19;;;1.10
73894;BMP280;62699;50.534;12.784;2023-04-09T05:50:00;97169.19;;;1.49
73894;BMP280;62699;50.534;12.784;2023-04-09T05:55:01;97180.06;;;1.78
73894;BMP280;62699;50.534;12.784;2023-04-09T06:00:02;97182.28;;;2.00
73894;BMP280;62699;50.534;12.784;2023-04-09T06:05:04;97181.03;;;2.04
73894;BMP280;62699;50.534;12.784;2023-04-09T06:10:05;97178.06;;;2.22
73894;BMP280;62699;50.534;12.784;2023-04-09T06:15:06;97176.69;;;2.14
73894;BMP280;62699;50.534;12.784;2023-04-09T06:20:08;97171.41;;;2.30
73894;BMP280;62699;50.534;12.784;2023-04-09T06:25:09;97185.72;;;2.36
73894;BMP280;62699;50.534;12.784;2023-04-09T06:30:09;97186.97;;;2.84
73894;BMP280;62699;50.534;12.784;2023-04-09T06:35:10;97189.56;;;3.32
73894;BMP280;62699;50.534;12.784;2023-04-09T06:40:12;97189.47;;;4.95
73894;BMP280;62699;50.534;12.784;2023-04-09T06:45:12;97204.75;;;5.85
73894;BMP280;62699;50.534;12.784;2023-04-09T06:50:12;97213.25;;;6.23
73894;BMP280;62699;50.534;12.784;2023-04-09T06:55:12;97200.19;;;6.25
73894;BMP280;62699;50.534;12.784;2023-04-09T07:00:13;97199.78;;;8.84
73894;BMP280;62699;50.534;12.784;2023-04-09T07:05:14;97211.22;;;9.76
73894;BMP280;62699;50.534;12.784;2023-04-09T07:10:14;97228.84;;;10.76
73894;BMP280;62699;50.534;12.784;2023-04-09T07:15:15;97210.41;;;8.78
73894;BMP280;62699;50.534;12.784;2023-04-09T07:20:15;97212.59;;;8.56
73894;BMP280;62699;50.534;12.784;2023-04-09T07:25:15;97213.06;;;11.92
73894;BMP280;62699;50.534;12.784;2023-04-09T07:30:16;97216.38;;;13.15
73894;BMP280;62699;50.534;12.784;2023-04-09T07:35:16;97221.88;;;15.78
73894;BMP280;62699;50.534;12.784;2023-04-09T07:40:18;97225.56;;;14.69
73894;BMP280;62699;50.534;12.784;2023-04-09T07:45:19;97218.25;;;15.35
73894;BMP280;62699;50.534;12.784;2023-04-09T07:50:19;97220.72;;;15.03
73894;BMP280;62699;50.534;12.784;2023-04-09T07:55:21;97221.41;;;15.09
73894;BMP280;62699;50.534;12.784;2023-04-09T08:00:27;97224.81;;;15.81
73894;BMP280;62699;50.534;12.784;2023-04-09T08:05:27;97210.34;;;15.97
73894;BMP280;62699;50.534;12.784;2023-04-09T08:10:28;97210.66;;;17.11
73894;BMP280;62699;50.534;12.784;2023-04-09T08:15:29;97211.25;;;14.74
73894;BMP280;62699;50.534;12.784;2023-04-09T08:20:31;97205.28;;;15.28
73894;BMP280;62699;50.534;12.784;2023-04-09T08:25:33;97209.53;;;17.19
73894;BMP280;62699;50.534;12.784;2023-04-09T08:30:33;97208.84;;;15.06
73894;BMP280;62699;50.534;12.784;2023-04-09T08:35:34;97202.75;;;16.57
73894;BMP280;62699;50.534;12.784;2023-04-09T08:40:35;97201.84;;;14.07
73894;BMP280;62699;50.534;12.784;2023-04-09T08:45:39;97200.66;;;13.52
73894;BMP280;62699;50.534;12.784;2023-04-09T08:50:40;97195.06;;;14.58
73894;BMP280;62699;50.534;12.784;2023-04-09T08:55:44;97195.72;;;15.16
73894;BMP280;62699;50.534;12.784;2023-04-09T09:00:44;97198.00;;;14.65
73894;BMP280;62699;50.534;12.784;2023-04-09T09:05:45;97193.97;;;14.77
73894;BMP280;62699;50.534;12.784;2023-04-09T09:10:45;97198.97;;;14.68
73894;BMP280;62699;50.534;12.784;2023-04-09T09:15:45;97198.22;;;13.65
73894;BMP280;62699;50.534;12.784;2023-04-09T09:20:48;97189.59;;;14.63
73894;BMP280;62699;50.534;12.784;2023-04-09T09:25:50;97187.72;;;14.99
73894;BMP280;62699;50.534;12.784;2023-04-09T09:30:51;97183.22;;;13.70
73894;BMP280;62699;50.534;12.784;2023-04-09T09:35:52;97174.09;;;13.90
73894;BMP280;62699;50.534;12.784;2023-04-09T09:40:53;97173.84;;;13.88
73894;BMP280;62699;50.534;12.784;2023-04-09T09:45:54;97179.16;;;14.26
73894;BMP280;62699;50.534;12.784;2023-04-09T09:50:56;97186.41;;;14.65
73894;BMP280;62699;50.534;12.784;2023-04-09T09:55:58;97167.91;;;14.63
73894;BMP280;62699;50.534;12.784;2023-04-09T10:01:01;97159.97;;;14.13
73894;BMP280;62699;50.534;12.784;2023-04-09T10:06:02;97164.75;;;13.46
73894;BMP280;62699;50.534;12.784;2023-04-09T10:11:04;97163.97;;;14.01
73894;BMP280;62699;50.534;12.784;2023-04-09T10:16:06;97150.41;;;14.70
73894;BMP280;62699;50.534;12.784;2023-04-09T10:21:32;97161.03;;;14.62
73894;BMP280;62699;50.534;12.784;2023-04-09T10:26:39;97149.19;;;14.02
73894;BMP280;62699;50.534;12.784;2023-04-09T10:32:09;97150.97;;;13.44
73894;BMP280;62699;50.534;12.784;2023-04-09T10:37:15;97143.34;;;13.31
73894;BMP280;62699;50.534;12.784;2023-04-09T10:42:18;97136.72;;;13.27
73894;BMP280;62699;50.534;12.784;2023-04-09T10:47:31;97143.44;;;14.80
73894;BMP280;62699;50.534;12.784;2023-04-09T10:52:33;97136.59;;;15.09
73894;BMP280;62699;50.534;12.784;2023-04-09T10:57:34;97137.63;;;14.02
73894;BMP280;62699;50.534;12.784;2023-04-09T11:07:41;97138.34;;;12.63
73894;BMP280;62699;50.534;12.784;2023-04-09T11:12:48;97131.53;;;12.96
73894;BMP280;62699;50.534;12.784;2023-04-09T11:17:49;97129.81;;;12.87
73894;BMP280;62699;50.534;12.784;2023-04-09T11:22:52;97132.94;;;12.63
73894;BMP280;62699;50.534;12.784;2023-04-09T11:27:53;97132.47;;;12.70
73894;BMP280;62699;50.534;12.784;2023-04-09T11:32:54;97135.19;;;12.93
73894;BMP280;62699;50.534;12.784;2023-04-09T11:37:56;97141.31;;;12.82
73894;BMP280;62699;50.534;12.784;2023-04-09T11:42:56;97138.72;;;13.10
73894;BMP280;62699;50.534;12.784;2023-04-09T11:47:58;97139.63;;;12.84
73894;BMP280;62699;50.534;12.784;2023-04-09T11:52:58;97140.19;;;13.11
73894;BMP280;62699;50.534;12.784;2023-04-09T11:57:59;97139.66;;;13.07
73894;BMP280;62699;50.534;12.784;2023-04-09T12:03:02;97141.41;;;13.54
73894;BMP280;62699;50.534;12.784;2023-04-09T12:08:05;97143.81;;;13.91
73894;BMP280;62699;50.534;12.784;2023-04-09T12:13:08;97142.81;;;13.89
73894;BMP280;62699;50.534;12.784;2023-04-09T12:18:13;97149.03;;;13.33
73894;BMP280;62699;50.534;12.784;2023-04-09T12:23:13;97143.31;;;12.87
73894;BMP280;62699;50.534;12.784;2023-04-09T12:28:15;97148.44;;;12.68
73894;BMP280;62699;50.534;12.784;2023-04-09T12:33:17;97149.84;;;12.58
73894;BMP280;62699;50.534;12.784;2023-04-09T12:38:17;97153.91;;;12.31
73894;BMP280;62699;50.534;12.784;2023-04-09T12:43:19;97147.22;;;12.16
73894;BMP280;62699;50.534;12.784;2023-04-09T12:48:21;97139.44;;;12.29
73894;BMP280;62699;50.534;12.784;2023-04-09T12:53:21;97136.00;;;12.34
73894;BMP280;62699;50.534;12.784;2023-04-09T12:58:21;97134.41;;;12.59
73894;BMP280;62699;50.534;12.784;2023-04-09T13:03:22;97139.16;;;13.03
73894;BMP280;62699;50.534;12.784;2023-04-09T13:08:22;97137.22;;;13.09
73894;BMP280;62699;50.534;12.784;2023-04-09T13:13:22;97141.19;;;13.30
73894;BMP280;62699;50.534;12.784;2023-04-09T13:18:24;97135.50;;;13.28
73894;BMP280;62699;50.534;12.784;2023-04-09T13:23:25;97132.75;;;12.95
73894;BMP280;62699;50.534;12.784;2023-04-09T13:28:25;97123.97;;;13.11
73894;BMP280;62699;50.534;12.784;2023-04-09T13:33:26;97118.97;;;12.81
73894;BMP280;62699;50.534;12.784;2023-04-09T13:38:26;97116.03;;;12.79
73894;BMP280;62699;50.534;12.784;2023-04-09T13:43:26;97112.56;;;12.68
73894;BMP280;62699;50.534;12.784;2023-04-09T13:48:28;97110.59;;;12.57
73894;BMP280;62699;50.534;12.784;2023-04-09T13:53:28;97109.78;;;12.51
73894;BMP280;62699;50.534;12.784;2023-04-09T13:58:28;97102.16;;;12.38
73894;BMP280;62699;50.534;12.784;2023-04-09T14:03:28;97096.00;;;12.38
73894;BMP280;62699;50.534;12.784;2023-04-09T14:08:29;97093.06;;;12.36
73894;BMP280;62699;50.534;12.784;2023-04-09T14:13:29;97094.03;;;12.27
73894;BMP280;62699;50.534;12.784;2023-04-09T14:18:30;97085.72;;;11.88
73894;BMP280;62699;50.534;12.784;2023-04-09T14:23:30;97086.97;;;11.87
73894;BMP280;62699;50.534;12.784;2023-04-09T14:28:31;97079.59;;;11.88
73894;BMP280;62699;50.534;12.784;2023-04-09T14:33:32;97090.09;;;11.80
73894;BMP280;62699;50.534;12.784;2023-04-09T14:38:33;97092.16;;;11.60
73894;BMP280;62699;50.534;12.784;2023-04-09T14:43:34;97085.72;;;11.52
73894;BMP280;62699;50.534;12.784;2023-04-09T14:48:34;97093.00;;;11.40
73894;BMP280;62699;50.534;12.784;2023-04-09T14:53:34;97086.84;;;11.34
73894;BMP280;62699;50.534;12.784;2023-04-09T14:58:35;97086.00;;;11.22
73894;BMP280;62699;50.534;12.784;2023-04-09T15:03:35;97090.16;;;11.18
73894;BMP280;62699;50.534;12.784;2023-04-09T15:08:35;97084.78;;;11.23
73894;BMP280;62699;50.534;12.784;2023-04-09T15:13:36;97072.41;;;11.37
73894;BMP280;62699;50.534;12.784;2023-04-09T15:18:36;97076.13;;;11.45
73894;BMP280;62699;50.534;12.784;2023-04-09T15:23:38;97076.97;;;11.57
73894;BMP280;62699;50.534;12.784;2023-04-09T15:28:38;97068.94;;;11.68
73894;BMP280;62699;50.534;12.784;2023-04-09T15:33:41;97065.19;;;11.60
73894;BMP280;62699;50.534;12.784;2023-04-09T15:38:42;97067.59;;;11.52
73894;BMP280;62699;50.534;12.784;2023-04-09T15:43:43;97064.66;;;11.50
73894;BMP280;62699;50.534;12.784;2023-04-09T15:48:43;97065.94;;;11.60
73894;BMP280;62699;50.534;12.784;2023-04-09T15:53:44;97060.16;;;11.73
73894;BMP280;62699;50.534;12.784;2023-04-09T15:58:44;97066.53;;;11.81
73894;BMP280;62699;50.534;12.784;2023-04-09T16:03:45;97067.38;;;11.98
73894;BMP280;62699;50.534;12.784;2023-04-09T16:08:50;97071.56;;;11.99
73894;BMP280;62699;50.534;12.784;2023-04-09T16:13:52;97071.84;;;12.07
73894;BMP280;62699;50.534;12.784;2023-04-09T16:18:52;97065.84;;;11.86
73894;BMP280;62699;50.534;12.784;2023-04-09T16:23:52;97060.06;;;11.62
73894;BMP280;62699;50.534;12.784;2023-04-09T16:28:52;97061.22;;;11.50
73894;BMP280;62699;50.534;12.784;2023-04-09T16:33:53;97075.34;;;11.39
73894;BMP280;62699;50.534;12.784;2023-04-09T16:38:55;97073.00;;;11.21
73894;BMP280;62699;50.534;12.784;2023-04-09T16:43:55;97082.91;;;11.04
73894;BMP280;62699;50.534;12.784;2023-04-09T16:48:57;97082.53;;;10.90
73894;BMP280;62699;50.534;12.784;2023-04-09T16:53:57;97078.41;;;10.69
73894;BMP280;62699;50.534;12.784;2023-04-09T16:58:57;97080.97;;;10.58
73894;BMP280;62699;50.534;12.784;2023-04-09T17:03:58;97074.00;;;10.46
73894;BMP280;62699;50.534;12.784;2023-04-09T17:09:00;97081.41;;;10.31
73894;BMP280;62699;50.534;12.784;2023-04-09T17:14:04;97094.09;;;10.10
73894;BMP280;62699;50.534;12.784;2023-04-09T17:19:04;97088.50;;;9.93
73894;BMP280;62699;50.534;12.784;2023-04-09T17:24:05;97092.06;;;9.70
73894;BMP280;62699;50.534;12.784;2023-04-09T17:29:07;97092.56;;;9.39
73894;BMP280;62699;50.534;12.784;2023-04-09T17:34:07;97101.09;;;9.08
73894;BMP280;62699;50.534;12.784;2023-04-09T17:39:07;97101.50;;;8.77
73894;BMP280;62699;50.534;12.784;2023-04-09T17:44:08;97110.22;;;8.49
73894;BMP280;62699;50.534;12.784;2023-04-09T17:49:08;97118.88;;;8.20
73894;BMP280;62699;50.534;12.784;2023-04-09T17:54:09;97111.56;;;7.87
73894;BMP280;62699;50.534;12.784;2023-04-09T17:59:09;97110.63;;;7.58
73894;BMP280;62699;50.534;12.784;2023-04-09T18:04:11;97112.44;;;7.33
73894;BMP280;62699;50.534;12.784;2023-04-09T18:09:11;97116.97;;;7.09
73894;BMP280;62699;50.534;12.784;2023-04-09T18:14:12;97124.84;;;6.94
73894;BMP280;62699;50.534;12.784;2023-04-09T18:19:12;97131.25;;;6.79
73894;BMP280;62699;50.534;12.784;2023-04-09T18:24:13;97127.19;;;6.56
73894;BMP280;62699;50.534;12.784;2023-04-09T18:29:14;97140.09;;;6.39
73894;BMP280;62699;50.534;12.784;2023-04-09T18:34:14;97143.25;;;6.16
73894;BMP280;62699;50.534;12.784;2023-04-09T18:39:15;97146.47;;;6.02
73894;BMP280;62699;50.534;12.784;2023-04-09T18:44:16;97161.56;;;5.87
73894;BMP280;62699;50.534;12.784;2023-04-09T18:49:16;97155.22;;;5.71
73894;BMP280;62699;50.534;12.784;2023-04-09T18:54:17;97163.13;;;5.53
73894;BMP280;62699;50.534;12.784;2023-04-09T18:59:17;97156.78;;;5.38
73894;BMP280;62699;50.534;12.784;2023-04-09T19:04:17;97174.78;;;5.25
73894;BMP280;62699;50.534;12.784;2023-04-09T19:09:17;97170.22;;;5.13
73894;BMP280;62699;50.534;12.784;2023-04-09T19:14:18;97169.50;;;4.99
73894;BMP280;62699;50.534;12.784;2023-04-09T19:19:18;97172.22;;;4.87
73894;BMP280;62699;50.534;12.784;2023-04-09T19:24:19;97169.88;;;4.76
73894;BMP280;62699;50.534;12.784;2023-04-09T19:29:19;97168.94;;;4.57
73894;BMP280;62699;50.534;12.784;2023-04-09T19:34:19;97168.09;;;4.48
73894;BMP280;62699;50.534;12.784;2023-04-09T19:39:20;97182.03;;;4.39
73894;BMP280;62699;50.534;12.784;2023-04-09T19:44:20;97177.03;;;4.29
73894;BMP280;62699;50.534;12.784;2023-04-09T19:49:21;97185.03;;;4.16
73894;BMP280;62699;50.534;12.784;2023-04-09T19:54:22;97186.84;;;4.06
73894;BMP280;62699;50.534;12.784;2023-04-09T19:59:23;97189.25;;;4.01
73894;BMP280;62699;50.534;12.784;2023-04-09T20:04:23;97178.84;;;3.94
73894;BMP280;62699;50.534;12.784;2023-04-09T20:09:23;97182.00;;;3.89
73894;BMP280;62699;50.534;12.784;2023-04-09T20:14:27;97177.69;;;3.78
73894;BMP280;62699;50.534;12.784;2023-04-09T20:19:28;97184.06;;;3.68
73894;BMP280;62699;50.534;12.784;2023-04-09T20:24:29;97184.19;;;3.65
73894;BMP280;62699;50.534;12.784;2023-04-09T20:29:29;97177.44;;;3.60
73894;BMP280;62699;50.534;12.784;2023-04-09T20:34:30;97176.03;;;3.56
73894;BMP280;62699;50.534;12.784;2023-04-09T20:39:31;97177.63;;;3.53
73894;BMP280;62699;50.534;12.784;2023-04-09T20:44:31;97189.03;;;3.54
73894;BMP280;62699;50.534;12.784;2023-04-09T20:49:32;97186.53;;;3.47
73894;BMP280;62699;50.534;12.784;2023-04-09T20:54:33;97186.09;;;3.48
73894;BMP280;62699;50.534;12.784;2023-04-09T20:59:33;97180.69;;;3.52
73894;BMP280;62699;50.534;12.784;2023-04-09T21:04:33;97187.00;;;3.45
73894;BMP280;62699;50.534;12.784;2023-04-09T21:09:33;97191.56;;;3.45
73894;BMP280;62699;50.534;12.784;2023-04-09T21:14:34;97192.31;;;3.58
73894;BMP280;62699;50.534;12.784;2023-04-09T21:19:34;97191.16;;;3.59
73894;BMP280;62699;50.534;12.784;2023-04-09T21:24:35;97187.19;;;3.51
73894;BMP280;62699;50.534;12.784;2023-04-09T21:29:36;97187.19;;;3.51
73894;BMP280;62699;50.534;12.784;2023-04-09T21:34:36;97183.56;;;3.45
73894;BMP280;62699;50.534;12.784;2023-04-09T21:39:38;97185.81;;;3.30
73894;BMP280;62699;50.534;12.784;2023-04-09T21:44:39;97189.28;;;3.14
73894;BMP280;62699;50.534;12.784;2023-04-09T21:49:40;97192.44;;;3.09
73894;BMP280;62699;50.534;12.784;2023-04-09T21:54:42;97199.56;;;2.96
73894;BMP280;62699;50.534;12.784;2023-04-09T21:59:43;97199.75;;;2.89
73894;BMP280;62699;50.534;12.784;2023-04-09T22:04:44;97186.28;;;2.80
73894;BMP280;62699;50.534;12.784;2023-04-09T22:09:46;97182.28;;;2.72
73894;BMP280;62699;50.534;12.784;2023-04-09T22:14:46;97178.19;;;2.67
73894;BMP280;62699;50.534;12.784;2023-04-09T22:19:46;97180.63;;;2.61
73894;BMP280;62699;50.534;12.784;2023-04-09T22:24:51;97178.44;;;2.56
73894;BMP280;62699;50.534;12.784;2023-04-09T22:29:51;97179.16;;;2.41
73894;BMP280;62699;50.534;12.784;2023-04-09T22:34:52;97189.53;;;2.35
73894;BMP280;62699;50.534;12.784;2023-04-09T22:39:53;97185.19;;;2.25
73894;BMP280;62699;50.534;12.784;2023-04-09T22:44:54;97173.63;;;2.15
73894;BMP280;62699;50.534;12.784;2023-04-09T22:49:54;97178.47;;;2.20
73894;BMP280;62699;50.534;12.784;2023-04-09T22:54:55;97171.50;;;2.26
73894;BMP280;62699;50.534;12.784;2023-04-09T22:59:56;97169.25;;;2.25
73894;BMP280;62699;50.534;12.784;2023-04-09T23:04:58;97174.66;;;2.21
73894;BMP280;62699;50.534;12.784;2023-04-09T23:10:00;97193.13;;;2.09
73894;BMP280;62699;50.534;12.784;2023-04-09T23:15:01;97180.72;;;2.22
73894;BMP280;62699;50.534;12.784;2023-04-09T23:20:01;97175.34;;;2.06
73894;BMP280;62699;50.534;12.784;2023-04-09T23:25:02;97175.69;;;2.08
73894;BMP280;62699;50.534;12.784;2023-04-09T23:30:03;97180.25;;;2.07
73894;BMP280;62699;50.534;12.784;2023-04-09T23:35:03;97177.44;;;1.95
73894;BMP280;62699;50.534;12.784;2023-04-09T23:40:05;97174.47;;;1.93
73894;BMP280;62699;50.534;12.784;2023-04-09T23:45:07;97176.50;;;1.85
73894;BMP280;62699;50.534;12.784;2023-04-09T23:50:08;97176.25;;;1.79
73894;BMP280;62699;50.534;12.784;2023-04-09T23:55:09;97172.56;;;1.73
